^^
Meteo Knjazevac Station Historical Data
Daily Summary for March 7, 2022 Units:  Both    English   Metric
Daily Weekly Monthly Yearly Custom
  High: Low: Average:
Temperature: 65.2 °F /  18.4 °C 48.6 °F /  9.2 °C 55 °F /  12.8 °C
Dew Point: 58.4 °F /  14.7 °C 48.3 °F /  9.1 °C 53.1 °F /  11.7 °C
Humidity: 99% 77% 94%
Wind Speed: 11.1mph /  17.9km/h - 2.9mph /  4.7km/h
Wind Gust: 14mph /  22.5km/h - -
Wind- - South
Pressure: 30.21 in /  1022.9 hPa 30.13 in /  1020.2 hPa -
Precipitation: 0.02 in /  0.51 mm    
Historical Graphs
 
 
Tabular Data for March 7, 2022
Time Temperature Dew Point Pressure Wind Wind Speed Wind Gust Humidity Rainfall Rate (Hourly) solar Conditions
00:04 51.4 °F /  10.8 °C 51.2 °F /  10.7 °C 30.13in /  1020.2hPa West 1.8mph /  2.9km/h 2mph /  3.2km/h 99% 0.00in /  0mm 0 W/m2
00:09 51.4 °F /  10.8 °C 51.2 °F /  10.7 °C 30.13in /  1020.2hPa West 2.5mph /  4km/h 2.5mph /  4km/h 99% 0.00in /  0mm 0 W/m2
00:14 51.4 °F /  10.8 °C 51.2 °F /  10.7 °C 30.13in /  1020.2hPa West 3.1mph /  5km/h 3mph /  4.8km/h 99% 0.00in /  0mm 0 W/m2
00:19 51.4 °F /  10.8 °C 51.2 °F /  10.7 °C 30.13in /  1020.2hPa West 3mph /  4.8km/h 3mph /  4.8km/h 99% 0.00in /  0mm 0 W/m2
00:24 51.5 °F /  10.8 °C 51.3 °F /  10.7 °C 30.13in /  1020.2hPa West 3.1mph /  5km/h 3mph /  4.8km/h 99% 0.00in /  0mm 0 W/m2
00:29 51.5 °F /  10.8 °C 51.3 °F /  10.7 °C 30.13in /  1020.2hPa WNW 3.4mph /  5.5km/h 3mph /  4.8km/h 99% 0.00in /  0mm 0 W/m2
00:34 51.6 °F /  10.9 °C 51.3 °F /  10.7 °C 30.14in /  1020.5hPa West 3.7mph /  6km/h 4mph /  6.4km/h 99% 0.00in /  0mm 0 W/m2
00:39 51.6 °F /  10.9 °C 51.3 °F /  10.7 °C 30.14in /  1020.5hPa West 2.9mph /  4.7km/h 5mph /  8km/h 99% 0.00in /  0mm 0 W/m2
00:44 51.6 °F /  10.9 °C 51.3 °F /  10.7 °C 30.14in /  1020.5hPa West 3.4mph /  5.5km/h 3mph /  4.8km/h 99% 0.00in /  0mm 0 W/m2
00:49 51.6 °F /  10.9 °C 51.3 °F /  10.7 °C 30.14in /  1020.5hPa West 4.2mph /  6.8km/h 3.4mph /  5.5km/h 99% 0.00in /  0mm 0 W/m2
00:54 51.6 °F /  10.9 °C 51.3 °F /  10.7 °C 30.14in /  1020.5hPa West 3.9mph /  6.3km/h 5mph /  8km/h 99% 0.00in /  0mm 0 W/m2
00:59 51.6 °F /  10.9 °C 51.3 °F /  10.7 °C 30.14in /  1020.5hPa West 2.7mph /  4.3km/h 5mph /  8km/h 99% 0.00in /  0mm 0 W/m2
01:04 51.7 °F /  10.9 °C 51.4 °F /  10.8 °C 30.14in /  1020.5hPa West 3.4mph /  5.5km/h 3mph /  4.8km/h 99% 0.00in /  0mm 0 W/m2
01:09 51.7 °F /  10.9 °C 51.4 °F /  10.8 °C 30.14in /  1020.5hPa West 3.2mph /  5.1km/h 3mph /  4.8km/h 99% 0.00in /  0mm 0 W/m2
01:14 51.7 °F /  10.9 °C 51.4 °F /  10.8 °C 30.14in /  1020.5hPa WNW 3.3mph /  5.3km/h 4mph /  6.4km/h 99% 0.00in /  0mm 0 W/m2
01:19 51.7 °F /  10.9 °C 51.4 °F /  10.8 °C 30.14in /  1020.5hPa WNW 2.4mph /  3.9km/h 4mph /  6.4km/h 99% 0.00in /  0mm 0 W/m2
01:24 51.8 °F /  11 °C 51.5 °F /  10.8 °C 30.14in /  1020.5hPa WNW 2.9mph /  4.7km/h 3mph /  4.8km/h 99% 0.00in /  0mm 0 W/m2
01:29 51.8 °F /  11 °C 51.5 °F /  10.8 °C 30.14in /  1020.5hPa WNW 2.5mph /  4km/h 3mph /  4.8km/h 99% 0.00in /  0mm 0 W/m2
01:34 51.8 °F /  11 °C 51.5 °F /  10.8 °C 30.14in /  1020.5hPa WNW 1.7mph /  2.7km/h 2mph /  3.2km/h 99% 0.00in /  0mm 0 W/m2
01:39 51.8 °F /  11 °C 51.5 °F /  10.8 °C 30.14in /  1020.5hPa WNW 1.3mph /  2.1km/h 2mph /  3.2km/h 99% 0.00in /  0mm 0 W/m2
01:44 51.7 °F /  10.9 °C 51.4 °F /  10.8 °C 30.14in /  1020.5hPa West 1.3mph /  2.1km/h 2mph /  3.2km/h 99% 0.00in /  0mm 0 W/m2
01:49 51.6 °F /  10.9 °C 51.3 °F /  10.7 °C 30.14in /  1020.5hPa West 1.5mph /  2.4km/h 2mph /  3.2km/h 99% 0.00in /  0mm 0 W/m2
01:54 51.6 °F /  10.9 °C 51.3 °F /  10.7 °C 30.14in /  1020.5hPa NW 1.3mph /  2.1km/h 2mph /  3.2km/h 99% 0.00in /  0mm 0 W/m2
01:59 51.6 °F /  10.9 °C 51.3 °F /  10.7 °C 30.14in /  1020.5hPa WNW 1.7mph /  2.7km/h 2mph /  3.2km/h 99% 0.00in /  0mm 0 W/m2
02:04 51.5 °F /  10.8 °C 51.3 °F /  10.7 °C 30.14in /  1020.5hPa WSW 1.5mph /  2.4km/h 2mph /  3.2km/h 99% 0.00in /  0mm 0 W/m2
02:09 51.4 °F /  10.8 °C 51.2 °F /  10.7 °C 30.14in /  1020.5hPa WSW 2.1mph /  3.4km/h 2mph /  3.2km/h 99% 0.00in /  0mm 0 W/m2
02:14 51.4 °F /  10.8 °C 51.2 °F /  10.7 °C 30.14in /  1020.5hPa West 1.9mph /  3.1km/h 2mph /  3.2km/h 99% 0.00in /  0mm 0 W/m2
02:19 51.4 °F /  10.8 °C 51.2 °F /  10.7 °C 30.14in /  1020.5hPa West 2.2mph /  3.5km/h 2mph /  3.2km/h 99% 0.00in /  0mm 0 W/m2
02:24 51.4 °F /  10.8 °C 51.2 °F /  10.7 °C 30.14in /  1020.5hPa WNW 1.5mph /  2.4km/h 2mph /  3.2km/h 99% 0.00in /  0mm 0 W/m2
02:29 51.4 °F /  10.8 °C 51.2 °F /  10.7 °C 30.14in /  1020.5hPa WNW 2.2mph /  3.5km/h 2mph /  3.2km/h 99% 0.00in /  0mm 0 W/m2
02:34 51.4 °F /  10.8 °C 51.2 °F /  10.7 °C 30.14in /  1020.5hPa WNW 1.7mph /  2.7km/h 2mph /  3.2km/h 99% 0.00in /  0mm 0 W/m2
02:39 51.4 °F /  10.8 °C 51.2 °F /  10.7 °C 30.14in /  1020.5hPa NW 2.2mph /  3.5km/h 2mph /  3.2km/h 99% 0.00in /  0mm 0 W/m2
02:44 51.4 °F /  10.8 °C 51.2 °F /  10.7 °C 30.14in /  1020.5hPa WNW 3mph /  4.8km/h 3mph /  4.8km/h 99% 0.00in /  0mm 0 W/m2
02:49 51.4 °F /  10.8 °C 51.2 °F /  10.7 °C 30.15in /  1020.9hPa West 2.3mph /  3.7km/h 3mph /  4.8km/h 99% 0.00in /  0mm 0 W/m2
02:54 51.5 °F /  10.8 °C 51.2 °F /  10.7 °C 30.15in /  1020.9hPa WSW 2.2mph /  3.5km/h 2mph /  3.2km/h 99% 0.00in /  0mm 0 W/m2
02:59 51.6 °F /  10.9 °C 51.3 °F /  10.7 °C 30.15in /  1020.9hPa WSW 1.5mph /  2.4km/h 2mph /  3.2km/h 99% 0.00in /  0mm 0 W/m2
03:04 51.6 °F /  10.9 °C 51.3 °F /  10.7 °C 30.15in /  1020.9hPa WSW 0.3mph /  0.5km/h 2mph /  3.2km/h 99% 0.00in /  0mm 0 W/m2
03:09 51.6 °F /  10.9 °C 51.3 °F /  10.7 °C 30.15in /  1020.9hPa Calm     99% 0.00in /  0mm 0 W/m2
03:14 51.6 °F /  10.9 °C 51.3 °F /  10.7 °C 30.15in /  1020.9hPa NNE 1.3mph /  2.1km/h 1.1mph /  1.8km/h 99% 0.00in /  0mm 0 W/m2
03:19 51.6 °F /  10.9 °C 51.3 °F /  10.7 °C 30.15in /  1020.9hPa ENE 0.5mph /  0.8km/h 2mph /  3.2km/h 99% 0.00in /  0mm 0 W/m2
03:24 51.6 °F /  10.9 °C 51.3 °F /  10.7 °C 30.15in /  1020.9hPa Calm   2mph /  3.2km/h 99% 0.00in /  0mm 0 W/m2
03:29 51.6 °F /  10.9 °C 51.3 °F /  10.7 °C 30.15in /  1020.9hPa Calm     99% 0.00in /  0mm 0 W/m2
03:34 51.6 °F /  10.9 °C 51.3 °F /  10.7 °C 30.15in /  1020.9hPa Calm     99% 0.00in /  0mm 0 W/m2
03:39 51.6 °F /  10.9 °C 51.3 °F /  10.7 °C 30.15in /  1020.9hPa Calm     99% 0.00in /  0mm 0 W/m2
03:44 51.6 °F /  10.9 °C 51.3 °F /  10.7 °C 30.15in /  1020.9hPa Calm     99% 0.00in /  0mm 0 W/m2
03:49 51.6 °F /  10.9 °C 51.3 °F /  10.7 °C 30.15in /  1020.9hPa Calm     99% 0.00in /  0mm 0 W/m2
03:54 51.6 °F /  10.9 °C 51.3 °F /  10.7 °C 30.15in /  1020.9hPa Calm     99% 0.00in /  0mm 0 W/m2
03:59 51.5 °F /  10.8 °C 51.3 °F /  10.7 °C 30.15in /  1020.9hPa Calm     99% 0.00in /  0mm 0 W/m2
04:04 51.4 °F /  10.8 °C 51.2 °F /  10.7 °C 30.15in /  1020.9hPa Calm     99% 0.00in /  0mm 0 W/m2
04:09 51.4 °F /  10.8 °C 51.2 °F /  10.7 °C 30.15in /  1020.9hPa Calm     99% 0.00in /  0mm 0 W/m2
04:14 51.4 °F /  10.8 °C 51.2 °F /  10.7 °C 30.15in /  1020.9hPa Calm     99% 0.00in /  0mm 0 W/m2
04:19 51.4 °F /  10.8 °C 51.2 °F /  10.7 °C 30.15in /  1020.9hPa Calm     99% 0.00in /  0mm 0 W/m2
04:24 51.3 °F /  10.7 °C 51 °F /  10.6 °C 30.15in /  1020.9hPa SE 0.2mph /  0.3km/h   99% 0.00in /  0mm 0 W/m2
04:29 51.3 °F /  10.7 °C 51 °F /  10.6 °C 30.15in /  1020.9hPa ESE 1.3mph /  2.1km/h 2mph /  3.2km/h 99% 0.00in /  0mm 0 W/m2
04:34 51.3 °F /  10.7 °C 51 °F /  10.6 °C 30.15in /  1020.9hPa NNE 1.2mph /  1.9km/h 2mph /  3.2km/h 99% 0.00in /  0mm 0 W/m2
04:39 51.2 °F /  10.7 °C 50.9 °F /  10.5 °C 30.15in /  1020.9hPa NNE 2mph /  3.2km/h 2mph /  3.2km/h 99% 0.00in /  0mm 0 W/m2
04:44 51.1 °F /  10.6 °C 50.8 °F /  10.4 °C 30.15in /  1020.9hPa NNE 1.1mph /  1.8km/h 3mph /  4.8km/h 99% 0.00in /  0mm 0 W/m2
04:49 50.9 °F /  10.5 °C 50.6 °F /  10.3 °C 30.15in /  1020.9hPa North 1.2mph /  1.9km/h 1mph /  1.6km/h 99% 0.00in /  0mm 0 W/m2
04:54 50.7 °F /  10.4 °C 50.4 °F /  10.2 °C 30.15in /  1020.9hPa NNW 1mph /  1.6km/h 2mph /  3.2km/h 99% 0.00in /  0mm 0 W/m2
04:59 50.5 °F /  10.3 °C 50.3 °F /  10.2 °C 30.15in /  1020.9hPa NNW 1.6mph /  2.6km/h 1mph /  1.6km/h 99% 0.00in /  0mm 0 W/m2
05:04 50.4 °F /  10.2 °C 50.2 °F /  10.1 °C 30.15in /  1020.9hPa NNW 2.9mph /  4.7km/h 2.5mph /  4km/h 99% 0.00in /  0mm 0 W/m2
05:09 50.3 °F /  10.2 °C 50 °F /  10 °C 30.16in /  1021.2hPa NW 2.4mph /  3.9km/h 3mph /  4.8km/h 99% 0.00in /  0mm 0 W/m2
05:14 50.1 °F /  10.1 °C 49.8 °F /  9.9 °C 30.16in /  1021.2hPa NNW 0.8mph /  1.3km/h 3mph /  4.8km/h 99% 0.00in /  0mm 0 W/m2
05:19 50 °F /  10 °C 49.7 °F /  9.8 °C 30.16in /  1021.2hPa North 3.2mph /  5.1km/h 3.4mph /  5.5km/h 99% 0.00in /  0mm 0 W/m2
05:24 49.9 °F /  9.9 °C 49.7 °F /  9.8 °C 30.16in /  1021.2hPa NE 2.5mph /  4km/h 4mph /  6.4km/h 99% 0.00in /  0mm 0 W/m2
05:29 49.8 °F /  9.9 °C 49.6 °F /  9.8 °C 30.16in /  1021.2hPa ENE 1.1mph /  1.8km/h 2mph /  3.2km/h 99% 0.00in /  0mm 0 W/m2
05:34 49.6 °F /  9.8 °C 49.4 °F /  9.7 °C 30.16in /  1021.2hPa NNE 1.2mph /  1.9km/h 2mph /  3.2km/h 99% 0.00in /  0mm 0 W/m2
05:39 49.5 °F /  9.7 °C 49.2 °F /  9.6 °C 30.16in /  1021.2hPa NNE 0.1mph /  0.2km/h 2mph /  3.2km/h 99% 0.00in /  0mm 0 W/m2
05:44 49.3 °F /  9.6 °C 49 °F /  9.4 °C 30.16in /  1021.2hPa Calm     99% 0.00in /  0mm 0 W/m2
05:49 49.1 °F /  9.5 °C 48.8 °F /  9.3 °C 30.16in /  1021.2hPa NNE 0.8mph /  1.3km/h 1.1mph /  1.8km/h 99% 0.00in /  0mm 0 W/m2
05:54 48.9 °F /  9.4 °C 48.7 °F /  9.3 °C 30.16in /  1021.2hPa NNE 0.3mph /  0.5km/h 2mph /  3.2km/h 99% 0.00in /  0mm 0 W/m2
05:59 48.8 °F /  9.3 °C 48.6 °F /  9.2 °C 30.16in /  1021.2hPa Calm     99% 0.00in /  0mm 0 W/m2
06:04 48.7 °F /  9.3 °C 48.5 °F /  9.2 °C 30.16in /  1021.2hPa NNE 1.1mph /  1.8km/h 0.7mph /  1.1km/h 99% 0.00in /  0mm 0 W/m2
06:09 48.6 °F /  9.2 °C 48.3 °F /  9.1 °C 30.16in /  1021.2hPa NE 0.7mph /  1.1km/h 2mph /  3.2km/h 99% 0.00in /  0mm 1 W/m2
06:14 48.6 °F /  9.2 °C 48.3 °F /  9.1 °C 30.16in /  1021.2hPa ESE 0.5mph /  0.8km/h 1mph /  1.6km/h 99% 0.00in /  0mm 2 W/m2
06:19 48.6 °F /  9.2 °C 48.3 °F /  9.1 °C 30.17in /  1021.6hPa ESE 1.1mph /  1.8km/h 2mph /  3.2km/h 99% 0.00in /  0mm 2 W/m2
06:24 48.6 °F /  9.2 °C 48.4 °F /  9.1 °C 30.17in /  1021.6hPa Calm   2mph /  3.2km/h 99% 0.00in /  0mm 4 W/m2
06:29 48.7 °F /  9.3 °C 48.5 °F /  9.2 °C 30.17in /  1021.6hPa Calm     99% 0.00in /  0mm 7 W/m2
06:34 48.7 °F /  9.3 °C 48.5 °F /  9.2 °C 30.17in /  1021.6hPa Calm     99% 0.00in /  0mm 8 W/m2
06:39 48.7 °F /  9.3 °C 48.5 °F /  9.2 °C 30.17in /  1021.6hPa Calm     99% 0.00in /  0mm 13 W/m2
06:44 48.7 °F /  9.3 °C 48.5 °F /  9.2 °C 30.17in /  1021.6hPa Calm     99% 0.00in /  0mm 16 W/m2
06:49 48.7 °F /  9.3 °C 48.5 °F /  9.2 °C 30.17in /  1021.6hPa Calm     99% 0.00in /  0mm 19 W/m2
06:54 48.9 °F /  9.4 °C 48.7 °F /  9.3 °C 30.17in /  1021.6hPa Calm     99% 0.00in /  0mm 24 W/m2
06:59 48.9 °F /  9.4 °C 48.7 °F /  9.3 °C 30.17in /  1021.6hPa Calm     99% 0.00in /  0mm 35 W/m2
07:04 48.9 °F /  9.4 °C 48.7 °F /  9.3 °C 30.18in /  1021.9hPa North 0.5mph /  0.8km/h 0.2mph /  0.3km/h 99% 0.00in /  0mm 42 W/m2
07:09 48.9 °F /  9.4 °C 48.7 °F /  9.3 °C 30.18in /  1021.9hPa North 0.2mph /  0.3km/h 2mph /  3.2km/h 99% 0.00in /  0mm 51 W/m2
07:14 48.8 °F /  9.3 °C 48.6 °F /  9.2 °C 30.18in /  1021.9hPa SW 0.6mph /  1km/h 1.1mph /  1.8km/h 99% 0.00in /  0mm 55 W/m2
07:19 48.7 °F /  9.3 °C 48.5 °F /  9.2 °C 30.18in /  1021.9hPa SSW 1.5mph /  2.4km/h 2mph /  3.2km/h 99% 0.00in /  0mm 55 W/m2
07:24 48.9 °F /  9.4 °C 48.7 °F /  9.3 °C 30.18in /  1021.9hPa SE 0.6mph /  1km/h 2mph /  3.2km/h 99% 0.00in /  0mm 60 W/m2
07:29 49 °F /  9.4 °C 48.7 °F /  9.3 °C 30.18in /  1021.9hPa ESE 0.4mph /  0.6km/h 1mph /  1.6km/h 99% 0.00in /  0mm 61 W/m2
07:34 49.2 °F /  9.6 °C 48.9 °F /  9.4 °C 30.18in /  1021.9hPa East 0.8mph /  1.3km/h 1mph /  1.6km/h 99% 0.00in /  0mm 62 W/m2
07:39 49.4 °F /  9.7 °C 49.1 °F /  9.5 °C 30.18in /  1021.9hPa North 0.2mph /  0.3km/h 2mph /  3.2km/h 99% 0.00in /  0mm 68 W/m2
07:44 49.6 °F /  9.8 °C 49.3 °F /  9.6 °C 30.18in /  1021.9hPa North 2.6mph /  4.2km/h 2.7mph /  4.3km/h 99% 0.00in /  0mm 74 W/m2
07:49 49.7 °F /  9.8 °C 49.5 °F /  9.7 °C 30.18in /  1021.9hPa NNE 3.4mph /  5.5km/h 4mph /  6.4km/h 99% 0.00in /  0mm 82 W/m2
07:54 50.1 °F /  10.1 °C 49.8 °F /  9.9 °C 30.18in /  1021.9hPa NNE 2.5mph /  4km/h 4mph /  6.4km/h 99% 0.00in /  0mm 91 W/m2
07:59 50.3 °F /  10.2 °C 50 °F /  10 °C 30.18in /  1021.9hPa NNE 1.6mph /  2.6km/h 3mph /  4.8km/h 99% 0.00in /  0mm 91 W/m2
08:04 50.4 °F /  10.2 °C 50.2 °F /  10.1 °C 30.18in /  1021.9hPa NW 0.8mph /  1.3km/h 2mph /  3.2km/h 99% 0.00in /  0mm 95 W/m2
08:09 50.6 °F /  10.3 °C 50.3 °F /  10.2 °C 30.18in /  1021.9hPa WNW 1.5mph /  2.4km/h 1.6mph /  2.6km/h 99% 0.00in /  0mm 105 W/m2
08:14 50.9 °F /  10.5 °C 50.6 °F /  10.3 °C 30.18in /  1021.9hPa West 1.8mph /  2.9km/h 2mph /  3.2km/h 99% 0.00in /  0mm 119 W/m2
08:19 51.2 °F /  10.7 °C 50.9 °F /  10.5 °C 30.19in /  1022.2hPa WSW 1.3mph /  2.1km/h 2mph /  3.2km/h 99% 0.00in /  0mm 130 W/m2
08:24 51.4 °F /  10.8 °C 51.2 °F /  10.7 °C 30.19in /  1022.2hPa West 1.2mph /  1.9km/h 2mph /  3.2km/h 99% 0.00in /  0mm 130 W/m2
08:29 51.6 °F /  10.9 °C 51.3 °F /  10.7 °C 30.19in /  1022.2hPa West 2.1mph /  3.4km/h 2mph /  3.2km/h 99% 0.00in /  0mm 119 W/m2
08:34 51.8 °F /  11 °C 51.5 °F /  10.8 °C 30.19in /  1022.2hPa WNW 1.3mph /  2.1km/h 3mph /  4.8km/h 99% 0.00in /  0mm 117 W/m2
08:39 52 °F /  11.1 °C 51.7 °F /  10.9 °C 30.19in /  1022.2hPa ESE 2mph /  3.2km/h 1.6mph /  2.6km/h 99% 0.00in /  0mm 125 W/m2
08:44 52.1 °F /  11.2 °C 51.8 °F /  11 °C 30.19in /  1022.2hPa East 2mph /  3.2km/h 2mph /  3.2km/h 99% 0.00in /  0mm 124 W/m2
08:49 52.3 °F /  11.3 °C 52 °F /  11.1 °C 30.19in /  1022.2hPa ENE 2.2mph /  3.5km/h 3mph /  4.8km/h 99% 0.00in /  0mm 128 W/m2
08:54 52.4 °F /  11.3 °C 52.2 °F /  11.2 °C 30.19in /  1022.2hPa South 2.7mph /  4.3km/h 2.2mph /  3.5km/h 99% 0.00in /  0mm 136 W/m2
08:59 52.6 °F /  11.4 °C 52.3 °F /  11.3 °C 30.19in /  1022.2hPa SSW 2.7mph /  4.3km/h 3mph /  4.8km/h 99% 0.00in /  0mm 141 W/m2
09:04 52.9 °F /  11.6 °C 52.6 °F /  11.4 °C 30.19in /  1022.2hPa SSW 2.9mph /  4.7km/h 3mph /  4.8km/h 99% 0.00in /  0mm 141 W/m2
09:09 52.9 °F /  11.6 °C 52.6 °F /  11.4 °C 30.19in /  1022.2hPa SSE 2.3mph /  3.7km/h 3mph /  4.8km/h 99% 0.00in /  0mm 154 W/m2
09:14 53 °F /  11.7 °C 52.7 °F /  11.5 °C 30.19in /  1022.2hPa SSE 2.9mph /  4.7km/h 2mph /  3.2km/h 99% 0.00in /  0mm 152 W/m2
09:19 53 °F /  11.7 °C 52.7 °F /  11.5 °C 30.19in /  1022.2hPa SE 2.9mph /  4.7km/h 5mph /  8km/h 99% 0.00in /  0mm 144 W/m2
09:24 53.1 °F /  11.7 °C 52.8 °F /  11.6 °C 30.19in /  1022.2hPa SE 3.1mph /  5km/h 3.4mph /  5.5km/h 99% 0.00in /  0mm 161 W/m2
09:29 53.1 °F /  11.7 °C 52.8 °F /  11.6 °C 30.19in /  1022.2hPa SSE 3mph /  4.8km/h 5mph /  8km/h 99% 0.00in /  0mm 176 W/m2
09:34 53.2 °F /  11.8 °C 52.9 °F /  11.6 °C 30.19in /  1022.2hPa South 3.3mph /  5.3km/h 3mph /  4.8km/h 99% 0.00in /  0mm 171 W/m2
09:39 53.2 °F /  11.8 °C 53 °F /  11.7 °C 30.19in /  1022.2hPa South 2.6mph /  4.2km/h 4mph /  6.4km/h 99% 0.00in /  0mm 176 W/m2
09:44 53.3 °F /  11.8 °C 53 °F /  11.7 °C 30.19in /  1022.2hPa SE 3.1mph /  5km/h 4mph /  6.4km/h 99% 0.00in /  0mm 194 W/m2
09:49 53.5 °F /  11.9 °C 53.2 °F /  11.8 °C 30.19in /  1022.2hPa SE 3.3mph /  5.3km/h 4mph /  6.4km/h 99% 0.00in /  0mm 264 W/m2
09:54 53.8 °F /  12.1 °C 53.5 °F /  11.9 °C 30.19in /  1022.2hPa SE 2.5mph /  4km/h 4mph /  6.4km/h 99% 0.00in /  0mm 266 W/m2
09:59 54 °F /  12.2 °C 53.8 °F /  12.1 °C 30.19in /  1022.2hPa SE 2.2mph /  3.5km/h 3mph /  4.8km/h 99% 0.00in /  0mm 258 W/m2
10:04 54.3 °F /  12.4 °C 54 °F /  12.2 °C 30.19in /  1022.2hPa ESE 1.7mph /  2.7km/h 2mph /  3.2km/h 99% 0.00in /  0mm 277 W/m2
10:09 54.8 °F /  12.7 °C 54.5 °F /  12.5 °C 30.19in /  1022.2hPa North 1.6mph /  2.6km/h 2mph /  3.2km/h 99% 0.00in /  0mm 288 W/m2
10:14 55.1 °F /  12.8 °C 54.9 °F /  12.7 °C 30.19in /  1022.2hPa East 2.4mph /  3.9km/h 3mph /  4.8km/h 99% 0.00in /  0mm 311 W/m2
10:19 55.7 °F /  13.2 °C 55.4 °F /  13 °C 30.19in /  1022.2hPa SSE 2.2mph /  3.5km/h 3mph /  4.8km/h 99% 0.00in /  0mm 311 W/m2
10:24 56.4 °F /  13.6 °C 56.2 °F /  13.4 °C 30.19in /  1022.2hPa WSW 2.6mph /  4.2km/h 3mph /  4.8km/h 99% 0.00in /  0mm 273 W/m2
10:29 57.1 °F /  13.9 °C 56.5 °F /  13.6 °C 30.19in /  1022.2hPa WSW 3mph /  4.8km/h 3mph /  4.8km/h 98% 0.00in /  0mm 365 W/m2
10:34 57.5 °F /  14.2 °C 56.3 °F /  13.5 °C 30.19in /  1022.2hPa NNW 4.1mph /  6.6km/h 5mph /  8km/h 96.1% 0.00in /  0mm 399 W/m2
10:39 58.1 °F /  14.5 °C 57 °F /  13.9 °C 30.19in /  1022.2hPa NNE 5.9mph /  9.5km/h 7mph /  11.3km/h 96% 0.00in /  0mm 326 W/m2
10:44 58.7 °F /  14.8 °C 57.2 °F /  14 °C 30.19in /  1022.2hPa NE 5.2mph /  8.4km/h 7mph /  11.3km/h 94.7% 0.00in /  0mm 333 W/m2
10:49 59.2 °F /  15.1 °C 57.4 °F /  14.1 °C 30.19in /  1022.2hPa NNE 3.5mph /  5.6km/h 7mph /  11.3km/h 94% 0.00in /  0mm 467 W/m2
10:54 59.5 °F /  15.3 °C 57.5 °F /  14.2 °C 30.19in /  1022.2hPa North 4.3mph /  6.9km/h 3mph /  4.8km/h 93.2% 0.00in /  0mm 272 W/m2
10:59 59.9 °F /  15.5 °C 57.6 °F /  14.2 °C 30.19in /  1022.2hPa NNE 4.7mph /  7.6km/h 6mph /  9.7km/h 92.1% 0.00in /  0mm 486 W/m2
11:04 59.7 °F /  15.4 °C 57.3 °F /  14.1 °C 30.18in /  1021.9hPa NE 3.7mph /  6km/h 6mph /  9.7km/h 91.7% 0.00in /  0mm 456 W/m2
11:09 60 °F /  15.6 °C 57.2 °F /  14 °C 30.18in /  1021.9hPa NE 3.5mph /  5.6km/h 5mph /  8km/h 90.7% 0.00in /  0mm 476 W/m2
11:14 60.5 °F /  15.8 °C 57.7 °F /  14.3 °C 30.18in /  1021.9hPa NNE 4.4mph /  7.1km/h 5mph /  8km/h 90.5% 0.00in /  0mm 450 W/m2
11:19 61.2 °F /  16.2 °C 57.9 °F /  14.4 °C 30.18in /  1021.9hPa NNE 5.5mph /  8.9km/h 7mph /  11.3km/h 89% 0.00in /  0mm 457 W/m2
11:24 62 °F /  16.7 °C 58.4 °F /  14.7 °C 30.18in /  1021.9hPa North 4.9mph /  7.9km/h 7mph /  11.3km/h 88.2% 0.00in /  0mm 442 W/m2
11:29 62.6 °F /  17 °C 58.3 °F /  14.6 °C 30.17in /  1021.6hPa North 4.8mph /  7.7km/h 6mph /  9.7km/h 85.9% 0.00in /  0mm 483 W/m2
11:34 63 °F /  17.2 °C 58 °F /  14.4 °C 30.17in /  1021.6hPa NNE 5mph /  8km/h 5mph /  8km/h 83.5% 0.00in /  0mm 500 W/m2
11:39 63.2 °F /  17.3 °C 57.7 °F /  14.3 °C 30.17in /  1021.6hPa NNE 5.3mph /  8.5km/h 6mph /  9.7km/h 82.1% 0.00in /  0mm 510 W/m2
11:44 63.5 °F /  17.5 °C 57.3 °F /  14.1 °C 30.17in /  1021.6hPa NNE 6.7mph /  10.8km/h 7mph /  11.3km/h 80.3% 0.00in /  0mm 501 W/m2
11:49 63.8 °F /  17.7 °C 57.7 °F /  14.3 °C 30.17in /  1021.6hPa NNE 6mph /  9.7km/h 8mph /  12.9km/h 80.5% 0.00in /  0mm 505 W/m2
11:54 64.3 °F /  17.9 °C 57.7 °F /  14.3 °C 30.17in /  1021.6hPa NNE 8.1mph /  13km/h 8mph /  12.9km/h 79.4% 0.00in /  0mm 506 W/m2
11:59 64.4 °F /  18 °C 57.8 °F /  14.3 °C 30.17in /  1021.6hPa North 7mph /  11.3km/h 10mph /  16.1km/h 79.3% 0.00in /  0mm 500 W/m2
12:04 64.1 °F /  17.8 °C 57.7 °F /  14.3 °C 30.17in /  1021.6hPa NNE 6.7mph /  10.8km/h 8mph /  12.9km/h 79.7% 0.00in /  0mm 387 W/m2
12:09 63.7 °F /  17.6 °C 57.5 °F /  14.2 °C 30.17in /  1021.6hPa North 7.2mph /  11.6km/h 8mph /  12.9km/h 80.3% 0.00in /  0mm 536 W/m2
12:14 64.1 °F /  17.8 °C 57.7 °F /  14.3 °C 30.16in /  1021.2hPa North 8.4mph /  13.5km/h 7mph /  11.3km/h 79.7% 0.00in /  0mm 540 W/m2
12:19 64.6 °F /  18.1 °C 57.9 °F /  14.4 °C 30.16in /  1021.2hPa NNE 8mph /  12.9km/h 10mph /  16.1km/h 79% 0.00in /  0mm 540 W/m2
12:24 64.9 °F /  18.3 °C 58.3 °F /  14.6 °C 30.16in /  1021.2hPa NNE 9.2mph /  14.8km/h 11mph /  17.7km/h 79% 0.00in /  0mm 482 W/m2
12:29 65.1 °F /  18.4 °C 58.3 °F /  14.6 °C 30.16in /  1021.2hPa NNE 7.5mph /  12.1km/h 12mph /  19.3km/h 78.8% 0.00in /  0mm 456 W/m2
12:34 65 °F /  18.3 °C 58.1 °F /  14.5 °C 30.16in /  1021.2hPa North 7.4mph /  11.9km/h 8mph /  12.9km/h 78.2% 0.00in /  0mm 443 W/m2
12:39 64.9 °F /  18.3 °C 57.9 °F /  14.4 °C 30.16in /  1021.2hPa North 8.7mph /  14km/h 11mph /  17.7km/h 78% 0.00in /  0mm 436 W/m2
12:44 64.9 °F /  18.3 °C 57.9 °F /  14.4 °C 30.15in /  1020.9hPa North 8.4mph /  13.5km/h 9mph /  14.5km/h 78% 0.00in /  0mm 419 W/m2
12:49 65.1 °F /  18.4 °C 58 °F /  14.4 °C 30.15in /  1020.9hPa North 8.6mph /  13.8km/h 10mph /  16.1km/h 77.9% 0.00in /  0mm 412 W/m2
12:54 65.2 °F /  18.4 °C 57.8 °F /  14.3 °C 30.15in /  1020.9hPa North 11.1mph /  17.9km/h 10mph /  16.1km/h 77% 0.00in /  0mm 409 W/m2
12:59 65.1 °F /  18.4 °C 57.7 °F /  14.3 °C 30.15in /  1020.9hPa North 7.6mph /  12.2km/h 14mph /  22.5km/h 77% 0.00in /  0mm 381 W/m2
13:04 65.1 °F /  18.4 °C 57.7 °F /  14.3 °C 30.15in /  1020.9hPa North 8.5mph /  13.7km/h 8mph /  12.9km/h 77% 0.00in /  0mm 388 W/m2
13:09 65 °F /  18.3 °C 57.7 °F /  14.3 °C 30.15in /  1020.9hPa North 9.5mph /  15.3km/h 10mph /  16.1km/h 77% 0.00in /  0mm 373 W/m2
13:14 64.9 °F /  18.3 °C 57.6 °F /  14.2 °C 30.15in /  1020.9hPa North 8.4mph /  13.5km/h 10mph /  16.1km/h 77% 0.00in /  0mm 359 W/m2
13:19 64.8 °F /  18.2 °C 57.4 °F /  14.1 °C 30.15in /  1020.9hPa North 10.6mph /  17.1km/h 10mph /  16.1km/h 77% 0.00in /  0mm 375 W/m2
13:24 64.7 °F /  18.2 °C 57.3 °F /  14.1 °C 30.15in /  1020.9hPa North 7.7mph /  12.4km/h 13mph /  20.9km/h 77% 0.00in /  0mm 353 W/m2
13:29 64.6 °F /  18.1 °C 57.2 °F /  14 °C 30.15in /  1020.9hPa North 8.5mph /  13.7km/h 11mph /  17.7km/h 77% 0.00in /  0mm 326 W/m2
13:34 64.6 °F /  18.1 °C 57.2 °F /  14 °C 30.15in /  1020.9hPa North 9.8mph /  15.8km/h 12mph /  19.3km/h 77% 0.00in /  0mm 320 W/m2
13:39 64.6 °F /  18.1 °C 57.2 °F /  14 °C 30.15in /  1020.9hPa North 8.1mph /  13km/h 12mph /  19.3km/h 77% 0.00in /  0mm 315 W/m2
13:44 64.4 °F /  18 °C 57 °F /  13.9 °C 30.15in /  1020.9hPa North 7.8mph /  12.6km/h 11mph /  17.7km/h 77% 0.00in /  0mm 311 W/m2
13:49 64.2 °F /  17.9 °C 56.9 °F /  13.8 °C 30.15in /  1020.9hPa North 10.6mph /  17.1km/h 9mph /  14.5km/h 77% 0.00in /  0mm 281 W/m2
13:54 64 °F /  17.8 °C 56.8 °F /  13.8 °C 30.15in /  1020.9hPa North 6.8mph /  10.9km/h 12mph /  19.3km/h 77.3% 0.00in /  0mm 281 W/m2
13:59 64 °F /  17.8 °C 57 °F /  13.9 °C 30.15in /  1020.9hPa North 7.5mph /  12.1km/h 7.6mph /  12.2km/h 77.9% 0.00in /  0mm 270 W/m2
14:04 64 °F /  17.8 °C 56.9 °F /  13.8 °C 30.15in /  1020.9hPa North 8.3mph /  13.4km/h 11mph /  17.7km/h 77.8% 0.00in /  0mm 250 W/m2
14:09 64 °F /  17.8 °C 57 °F /  13.9 °C 30.15in /  1020.9hPa North 10mph /  16.1km/h 12mph /  19.3km/h 78% 0.00in /  0mm 235 W/m2
14:14 63.7 °F /  17.6 °C 56.7 °F /  13.7 °C 30.15in /  1020.9hPa North 9.1mph /  14.6km/h 12mph /  19.3km/h 78% 0.00in /  0mm 203 W/m2
14:19 63.3 °F /  17.4 °C 56.4 °F /  13.6 °C 30.15in /  1020.9hPa North 9.2mph /  14.8km/h 11mph /  17.7km/h 78.1% 0.00in /  0mm 167 W/m2
14:24 63 °F /  17.2 °C 56.4 °F /  13.6 °C 30.15in /  1020.9hPa North 7.6mph /  12.2km/h 10mph /  16.1km/h 79% 0.00in /  0mm 151 W/m2
14:29 62.8 °F /  17.1 °C 56.2 °F /  13.4 °C 30.15in /  1020.9hPa North 7.6mph /  12.2km/h 8mph /  12.9km/h 79% 0.00in /  0mm 141 W/m2
14:34 62.4 °F /  16.9 °C 56.2 °F /  13.4 °C 30.15in /  1020.9hPa North 8.3mph /  13.4km/h 8mph /  12.9km/h 79.8% 0.00in /  0mm 163 W/m2
14:39 62.2 °F /  16.8 °C 56 °F /  13.3 °C 30.15in /  1020.9hPa North 8.9mph /  14.3km/h 9mph /  14.5km/h 80% 0.00in /  0mm 167 W/m2
14:44 62.2 °F /  16.8 °C 56 °F /  13.3 °C 30.15in /  1020.9hPa North 8.1mph /  13km/h 9mph /  14.5km/h 80% 0.00in /  0mm 163 W/m2
14:49 62.1 °F /  16.7 °C 55.8 °F /  13.2 °C 30.15in /  1020.9hPa North 7mph /  11.3km/h 10mph /  16.1km/h 80% 0.00in /  0mm 136 W/m2
14:54 61.9 °F /  16.6 °C 55.6 °F /  13.1 °C 30.15in /  1020.9hPa North 7.5mph /  12.1km/h 7mph /  11.3km/h 80% 0.00in /  0mm 124 W/m2
14:59 61.7 °F /  16.5 °C 55.6 °F /  13.1 °C 30.15in /  1020.9hPa North 8.7mph /  14km/h 12mph /  19.3km/h 80.5% 0.00in /  0mm 133 W/m2
15:04 61.6 °F /  16.4 °C 55.7 °F /  13.2 °C 30.15in /  1020.9hPa North 7.6mph /  12.2km/h 12mph /  19.3km/h 81% 0.00in /  0mm 128 W/m2
15:09 61.4 °F /  16.3 °C 55.6 °F /  13.1 °C 30.15in /  1020.9hPa NNW 5.8mph /  9.3km/h 10mph /  16.1km/h 81% 0.00in /  0mm 109 W/m2
15:14 61.3 °F /  16.3 °C 55.5 °F /  13.1 °C 30.15in /  1020.9hPa NNW 4.9mph /  7.9km/h 7mph /  11.3km/h 81% 0.00in /  0mm 106 W/m2
15:19 61.2 °F /  16.2 °C 55.3 °F /  12.9 °C 30.15in /  1020.9hPa North 6.2mph /  10km/h 8mph /  12.9km/h 81% 0.00in /  0mm 86 W/m2
15:24 61 °F /  16.1 °C 55.7 °F /  13.2 °C 30.15in /  1020.9hPa North 6.5mph /  10.5km/h 7mph /  11.3km/h 82.6% 0.00in /  0mm 72 W/m2
15:29 60.7 °F /  15.9 °C 55.5 °F /  13.1 °C 30.15in /  1020.9hPa North 5.7mph /  9.2km/h 8mph /  12.9km/h 83% 0.00in /  0mm 57 W/m2
15:34 60.5 °F /  15.8 °C 55.3 °F /  12.9 °C 30.15in /  1020.9hPa North 6.4mph /  10.3km/h 7mph /  11.3km/h 83% 0.00in /  0mm 44 W/m2
15:39 60.2 °F /  15.7 °C 55.1 °F /  12.8 °C 30.15in /  1020.9hPa North 6.5mph /  10.5km/h 9mph /  14.5km/h 83.3% 0.00in /  0mm 36 W/m2
15:44 60 °F /  15.6 °C 55.1 °F /  12.8 °C 30.15in /  1020.9hPa North 6.5mph /  10.5km/h 9mph /  14.5km/h 84% 0.00in /  0mm 30 W/m2
15:49 59.8 °F /  15.4 °C 55 °F /  12.8 °C 30.15in /  1020.9hPa North 6.9mph /  11.1km/h 8mph /  12.9km/h 84% 0.00in /  0mm 26 W/m2
15:54 59.5 °F /  15.3 °C 54.7 °F /  12.6 °C 30.15in /  1020.9hPa NNW 5.2mph /  8.4km/h 9mph /  14.5km/h 84% 0.00in /  0mm 21 W/m2
15:59 59.4 °F /  15.2 °C 54.8 °F /  12.7 °C 30.15in /  1020.9hPa North 4.3mph /  6.9km/h 7mph /  11.3km/h 84.6% 0.00in /  0mm 16 W/m2
16:04 59.3 °F /  15.2 °C 54.7 °F /  12.6 °C 30.15in /  1020.9hPa NNW 6.1mph /  9.8km/h 8mph /  12.9km/h 85% 0.00in /  0mm 13 W/m2
16:09 59.1 °F /  15.1 °C 54.6 °F /  12.6 °C 30.15in /  1020.9hPa NNW 4.1mph /  6.6km/h 8mph /  12.9km/h 85% 0.00in /  0mm 10 W/m2
16:14 58.9 °F /  14.9 °C 54.5 °F /  12.5 °C 30.15in /  1020.9hPa NNW 5.6mph /  9km/h 5mph /  8km/h 85.3% 0.00in /  0mm 7 W/m2
16:19 58.7 °F /  14.8 °C 54.5 °F /  12.5 °C 30.15in /  1020.9hPa NNW 5.3mph /  8.5km/h 7mph /  11.3km/h 86% 0.00in /  0mm 4 W/m2
16:24 58.6 °F /  14.8 °C 54.4 °F /  12.4 °C 30.15in /  1020.9hPa NNW 5mph /  8km/h 6mph /  9.7km/h 86% 0.00in /  0mm 2 W/m2
16:29 58.4 °F /  14.7 °C 54.4 °F /  12.4 °C 30.16in /  1021.2hPa NNW 5.5mph /  8.9km/h 6mph /  9.7km/h 86.5% 0.00in /  0mm 0 W/m2
16:34 58.1 °F /  14.5 °C 54.6 °F /  12.6 °C 30.16in /  1021.2hPa NNW 5.4mph /  8.7km/h 7mph /  11.3km/h 88% 0.00in /  0mm 0 W/m2
16:39 58 °F /  14.4 °C 54.4 °F /  12.4 °C 30.16in /  1021.2hPa NNW 5.9mph /  9.5km/h 8mph /  12.9km/h 88% 0.00in /  0mm 0 W/m2
16:44 57.9 °F /  14.4 °C 54.4 °F /  12.4 °C 30.16in /  1021.2hPa NNW 4.2mph /  6.8km/h 7mph /  11.3km/h 88% 0.00in /  0mm 0 W/m2
16:49 57.7 °F /  14.3 °C 54.2 °F /  12.3 °C 30.16in /  1021.2hPa NNW 4.5mph /  7.2km/h 6mph /  9.7km/h 88% 0.00in /  0mm 0 W/m2
16:54 57.7 °F /  14.3 °C 54.1 °F /  12.3 °C 30.16in /  1021.2hPa NW 2mph /  3.2km/h 6mph /  9.7km/h 88.1% 0.00in /  0mm 0 W/m2
16:59 57.6 °F /  14.2 °C 54.1 °F /  12.3 °C 30.16in /  1021.2hPa NW 2mph /  3.2km/h 3mph /  4.8km/h 88.5% 0.00in /  0mm 0 W/m2
17:04 57.4 °F /  14.1 °C 54.2 °F /  12.3 °C 30.16in /  1021.2hPa WNW 3.4mph /  5.5km/h 3mph /  4.8km/h 89% 0.00in /  0mm 0 W/m2
17:09 57.2 °F /  14 °C 54 °F /  12.2 °C 30.16in /  1021.2hPa WNW 3.6mph /  5.8km/h 5mph /  8km/h 89% 0.00in /  0mm 0 W/m2
17:14 56.9 °F /  13.8 °C 53.7 °F /  12.1 °C 30.16in /  1021.2hPa WNW 4.6mph /  7.4km/h 5mph /  8km/h 89% 0.00in /  0mm 0 W/m2
17:19 56.8 °F /  13.8 °C 53.7 °F /  12.1 °C 30.16in /  1021.2hPa WNW 3.6mph /  5.8km/h 6mph /  9.7km/h 89.6% 0.00in /  0mm 0 W/m2
17:24 56.7 °F /  13.7 °C 53.8 °F /  12.1 °C 30.16in /  1021.2hPa WNW 3.5mph /  5.6km/h 4mph /  6.4km/h 90% 0.00in /  0mm 0 W/m2
17:29 56.4 °F /  13.6 °C 53.5 °F /  11.9 °C 30.16in /  1021.2hPa WNW 3.4mph /  5.5km/h 4mph /  6.4km/h 90% 0.00in /  0mm 0 W/m2
17:34 56.3 °F /  13.5 °C 53.4 °F /  11.9 °C 30.16in /  1021.2hPa WNW 2.1mph /  3.4km/h 4mph /  6.4km/h 90% 0.00in /  0mm 0 W/m2
17:39 56.2 °F /  13.4 °C 53.3 °F /  11.8 °C 30.17in /  1021.6hPa West 2.3mph /  3.7km/h 2mph /  3.2km/h 90% 0.00in /  0mm 0 W/m2
17:44 55.9 °F /  13.3 °C 53.2 °F /  11.8 °C 30.17in /  1021.6hPa WSW 1.1mph /  1.8km/h 2mph /  3.2km/h 90.5% 0.00in /  0mm 0 W/m2
17:49 55.8 °F /  13.2 °C 53.2 °F /  11.8 °C 30.17in /  1021.6hPa West 1mph /  1.6km/h 2mph /  3.2km/h 91% 0.00in /  0mm 0 W/m2
17:54 55.6 °F /  13.1 °C 53 °F /  11.7 °C 30.17in /  1021.6hPa WNW 0.8mph /  1.3km/h 2mph /  3.2km/h 91% 0.00in /  0mm 0 W/m2
17:59 55.4 °F /  13 °C 52.8 °F /  11.6 °C 30.17in /  1021.6hPa NW 1.1mph /  1.8km/h 2mph /  3.2km/h 91% 0.00in /  0mm 0 W/m2
18:04 55.2 °F /  12.9 °C 53 °F /  11.7 °C 30.17in /  1021.6hPa West 1.5mph /  2.4km/h 2mph /  3.2km/h 92.4% 0.00in /  0mm 0 W/m2
18:09 55 °F /  12.8 °C 53.1 °F /  11.7 °C 30.17in /  1021.6hPa WSW 0.3mph /  0.5km/h 2mph /  3.2km/h 93% 0.00in /  0mm 0 W/m2
18:14 55 °F /  12.8 °C 53.1 °F /  11.7 °C 30.17in /  1021.6hPa WSW 1.2mph /  1.9km/h 2mph /  3.2km/h 93% 0.00in /  0mm 0 W/m2
18:19 54.9 °F /  12.7 °C 52.9 °F /  11.6 °C 30.17in /  1021.6hPa WNW 0.6mph /  1km/h 2mph /  3.2km/h 93% 0.00in /  0mm 0 W/m2
18:24 54.8 °F /  12.7 °C 53 °F /  11.7 °C 30.17in /  1021.6hPa West 1.1mph /  1.8km/h 2mph /  3.2km/h 93.6% 0.00in /  0mm 0 W/m2
18:29 54.7 °F /  12.6 °C 53 °F /  11.7 °C 30.17in /  1021.6hPa WSW 0.6mph /  1km/h 1mph /  1.6km/h 94% 0.00in /  0mm 0 W/m2
18:34 54.7 °F /  12.6 °C 53 °F /  11.7 °C 30.17in /  1021.6hPa WNW 0.7mph /  1.1km/h 1mph /  1.6km/h 94% 0.00in /  0mm 0 W/m2
18:39 54.6 °F /  12.6 °C 52.9 °F /  11.6 °C 30.17in /  1021.6hPa WNW 0.5mph /  0.8km/h 1mph /  1.6km/h 94% 0.00in /  0mm 0 W/m2
18:44 54.4 °F /  12.4 °C 52.7 °F /  11.5 °C 30.17in /  1021.6hPa NNW 0.9mph /  1.4km/h 1mph /  1.6km/h 94% 0.00in /  0mm 0 W/m2
18:49 54.3 °F /  12.4 °C 52.6 °F /  11.4 °C 30.17in /  1021.6hPa NE 2.3mph /  3.7km/h 2mph /  3.2km/h 94% 0.00in /  0mm 0 W/m2
18:54 54.1 °F /  12.3 °C 52.6 °F /  11.4 °C 30.17in /  1021.6hPa South 2.5mph /  4km/h 3mph /  4.8km/h 94.3% 0.00in /  0mm 0 W/m2
18:59 54.1 °F /  12.3 °C 52.7 °F /  11.5 °C 30.17in /  1021.6hPa SSE 3mph /  4.8km/h 3mph /  4.8km/h 95% 0.00in /  0mm 0 W/m2
19:04 54 °F /  12.2 °C 52.6 °F /  11.4 °C 30.18in /  1021.9hPa SSE 2.2mph /  3.5km/h 3mph /  4.8km/h 95% 0.00in /  0mm 0 W/m2
19:09 54 °F /  12.2 °C 52.6 °F /  11.4 °C 30.18in /  1021.9hPa South 2.2mph /  3.5km/h 2mph /  3.2km/h 95% 0.00in /  0mm 0 W/m2
19:14 54 °F /  12.2 °C 52.6 °F /  11.4 °C 30.18in /  1021.9hPa SSE 0.8mph /  1.3km/h 3mph /  4.8km/h 95% 0.00in /  0mm 0 W/m2
19:19 54 °F /  12.2 °C 52.6 °F /  11.4 °C 30.18in /  1021.9hPa SSE 1.2mph /  1.9km/h 2mph /  3.2km/h 95% 0.00in /  0mm 0 W/m2
19:24 54 °F /  12.2 °C 52.6 °F /  11.4 °C 30.18in /  1021.9hPa SSE 1.1mph /  1.8km/h 2mph /  3.2km/h 95% 0.00in /  0mm 0 W/m2
19:29 53.9 °F /  12.2 °C 52.5 °F /  11.4 °C 30.18in /  1021.9hPa ENE 2mph /  3.2km/h 2mph /  3.2km/h 95% 0.00in /  0mm 0 W/m2
19:34 53.8 °F /  12.1 °C 52.4 °F /  11.3 °C 30.18in /  1021.9hPa ENE 0.9mph /  1.4km/h 2mph /  3.2km/h 95% 0.00in /  0mm 0 W/m2
19:39 53.8 °F /  12.1 °C 52.4 °F /  11.3 °C 30.19in /  1022.2hPa ESE 0.9mph /  1.4km/h 1mph /  1.6km/h 95% 0.00in /  0mm 0 W/m2
19:44 53.8 °F /  12.1 °C 52.4 °F /  11.3 °C 30.19in /  1022.2hPa East 0.9mph /  1.4km/h 2mph /  3.2km/h 95% 0.00in /  0mm 0 W/m2
19:49 53.8 °F /  12.1 °C 52.5 °F /  11.4 °C 30.19in /  1022.2hPa NNE 1.5mph /  2.4km/h 2mph /  3.2km/h 95.4% 0.00in /  0mm 0 W/m2
19:54 53.9 °F /  12.2 °C 52.8 °F /  11.6 °C 30.19in /  1022.2hPa NE 2.1mph /  3.4km/h 2mph /  3.2km/h 96% 0.00in /  0mm 0 W/m2
19:59 54 °F /  12.2 °C 52.8 °F /  11.6 °C 30.19in /  1022.2hPa NE 1.8mph /  2.9km/h 2mph /  3.2km/h 96% 0.00in /  0mm 0 W/m2
20:04 54 °F /  12.2 °C 52.8 °F /  11.6 °C 30.19in /  1022.2hPa NE 0.1mph /  0.2km/h 2mph /  3.2km/h 96% 0.00in /  0mm 0 W/m2
20:09 54 °F /  12.2 °C 52.8 °F /  11.6 °C 30.19in /  1022.2hPa NE 0.4mph /  0.6km/h 0.2mph /  0.3km/h 96% 0.00in /  0mm 0 W/m2
20:14 54 °F /  12.2 °C 52.8 °F /  11.6 °C 30.19in /  1022.2hPa NNE 0.6mph /  1km/h 1mph /  1.6km/h 96% 0.00in /  0mm 0 W/m2
20:19 54 °F /  12.2 °C 53 °F /  11.7 °C 30.19in /  1022.2hPa Calm   1mph /  1.6km/h 96.6% 0.00in /  0mm 0 W/m2
20:24 54 °F /  12.2 °C 53.4 °F /  11.9 °C 30.19in /  1022.2hPa Calm     98% 0.00in /  0mm 0 W/m2
20:29 54 °F /  12.2 °C 53.4 °F /  11.9 °C 30.19in /  1022.2hPa Calm     98% 0.00in /  0mm 0 W/m2
20:34 54 °F /  12.2 °C 53.4 °F /  11.9 °C 30.19in /  1022.2hPa NNE 0.5mph /  0.8km/h 0.2mph /  0.3km/h 98% 0.00in /  0mm 0 W/m2
20:39 54 °F /  12.2 °C 53.4 °F /  11.9 °C 30.19in /  1022.2hPa NNW 0.7mph /  1.1km/h 1mph /  1.6km/h 98% 0.00in /  0mm 0 W/m2
20:44 53.8 °F /  12.1 °C 53.3 °F /  11.8 °C 30.20in /  1022.6hPa Calm   1mph /  1.6km/h 98% 0.01in /  0.25mm 0 W/m2
20:49 53.8 °F /  12.1 °C 53.3 °F /  11.8 °C 30.20in /  1022.6hPa Calm     98.3% 0.01in /  0.25mm 0 W/m2
20:54 53.8 °F /  12.1 °C 53.5 °F /  11.9 °C 30.20in /  1022.6hPa Calm     99% 0.01in /  0.25mm 0 W/m2
20:59 53.7 °F /  12.1 °C 53.4 °F /  11.9 °C 30.20in /  1022.6hPa Calm     99% 0.01in /  0.25mm 0 W/m2
21:04 53.6 °F /  12 °C 53.3 °F /  11.8 °C 30.20in /  1022.6hPa Calm     99% 0.01in /  0.25mm 0 W/m2
21:09 53.6 °F /  12 °C 53.3 °F /  11.8 °C 30.20in /  1022.6hPa Calm     99% 0.02in /  0.51mm 0 W/m2
21:14 53.5 °F /  11.9 °C 53.2 °F /  11.8 °C 30.20in /  1022.6hPa Calm     99% 0.02in /  0.51mm 0 W/m2
21:19 53.4 °F /  11.9 °C 53.1 °F /  11.7 °C 30.20in /  1022.6hPa Calm     99% 0.02in /  0.51mm 0 W/m2
21:24 53.4 °F /  11.9 °C 53.1 °F /  11.7 °C 30.20in /  1022.6hPa Calm     99% 0.02in /  0.51mm 0 W/m2
21:29 53.4 °F /  11.9 °C 53.1 °F /  11.7 °C 30.20in /  1022.6hPa Calm     99% 0.02in /  0.51mm 0 W/m2
21:34 53.4 °F /  11.9 °C 53.1 °F /  11.7 °C 30.20in /  1022.6hPa Calm     99% 0.02in /  0.51mm 0 W/m2
21:39 53.4 °F /  11.9 °C 53.1 °F /  11.7 °C 30.20in /  1022.6hPa Calm     99% 0.02in /  0.51mm 0 W/m2
21:44 53.3 °F /  11.8 °C 53 °F /  11.7 °C 30.20in /  1022.6hPa Calm     99% 0.02in /  0.51mm 0 W/m2
21:49 53.2 °F /  11.8 °C 53 °F /  11.7 °C 30.20in /  1022.6hPa SW 0.7mph /  1.1km/h 0.2mph /  0.3km/h 99% 0.01in /  0.25mm 0 W/m2
21:54 53.2 °F /  11.8 °C 53 °F /  11.7 °C 30.20in /  1022.6hPa WSW 0.7mph /  1.1km/h 1mph /  1.6km/h 99% 0.01in /  0.25mm 0 W/m2
21:59 53.2 °F /  11.8 °C 53 °F /  11.7 °C 30.20in /  1022.6hPa Calm   1mph /  1.6km/h 99% 0.01in /  0.25mm 0 W/m2
22:04 53.2 °F /  11.8 °C 53 °F /  11.7 °C 30.20in /  1022.6hPa WSW 0.1mph /  0.2km/h   99% 0.01in /  0.25mm 0 W/m2
22:09 53.2 °F /  11.8 °C 53 °F /  11.7 °C 30.20in /  1022.6hPa West 1.1mph /  1.8km/h 1mph /  1.6km/h 99% 0.00in /  0mm 0 W/m2
22:14 53.2 °F /  11.8 °C 53 °F /  11.7 °C 30.20in /  1022.6hPa Calm   1mph /  1.6km/h 99% 0.00in /  0mm 0 W/m2
22:19 53.2 °F /  11.8 °C 53 °F /  11.7 °C 30.20in /  1022.6hPa Calm     99% 0.00in /  0mm 0 W/m2
22:24 53.2 °F /  11.8 °C 53 °F /  11.7 °C 30.20in /  1022.6hPa Calm     99% 0.00in /  0mm 0 W/m2
22:29 53.2 °F /  11.8 °C 53 °F /  11.7 °C 30.20in /  1022.6hPa Calm     99% 0.00in /  0mm 0 W/m2
22:34 53.2 °F /  11.8 °C 53 °F /  11.7 °C 30.20in /  1022.6hPa SW 0.5mph /  0.8km/h 0.7mph /  1.1km/h 99% 0.00in /  0mm 0 W/m2
22:39 53.2 °F /  11.8 °C 53 °F /  11.7 °C 30.20in /  1022.6hPa WSW 1.7mph /  2.7km/h 2mph /  3.2km/h 99% 0.00in /  0mm 0 W/m2
22:44 53.2 °F /  11.8 °C 52.9 °F /  11.6 °C 30.20in /  1022.6hPa WNW 1.6mph /  2.6km/h 2mph /  3.2km/h 99% 0.00in /  0mm 0 W/m2
22:49 53.1 °F /  11.7 °C 52.8 °F /  11.6 °C 30.20in /  1022.6hPa Calm   2mph /  3.2km/h 99% 0.00in /  0mm 0 W/m2
22:54 53.1 °F /  11.7 °C 52.8 °F /  11.6 °C 30.20in /  1022.6hPa North 0.5mph /  0.8km/h 0.7mph /  1.1km/h 99% 0.00in /  0mm 0 W/m2
22:59 53.1 °F /  11.7 °C 52.8 °F /  11.6 °C 30.20in /  1022.6hPa NNW 1.3mph /  2.1km/h 2mph /  3.2km/h 99% 0.00in /  0mm 0 W/m2
23:04 53.1 °F /  11.7 °C 52.8 °F /  11.6 °C 30.20in /  1022.6hPa NNW 0.6mph /  1km/h 2mph /  3.2km/h 99% 0.00in /  0mm 0 W/m2
23:09 53 °F /  11.7 °C 52.7 °F /  11.5 °C 30.20in /  1022.6hPa NW 0.7mph /  1.1km/h 1mph /  1.6km/h 99% 0.00in /  0mm 0 W/m2
23:14 53.1 °F /  11.7 °C 52.8 °F /  11.6 °C 30.21in /  1022.9hPa North 1.8mph /  2.9km/h 2mph /  3.2km/h 99% 0.00in /  0mm 0 W/m2
23:19 53.1 °F /  11.7 °C 52.8 °F /  11.6 °C 30.21in /  1022.9hPa NNE 2.3mph /  3.7km/h 3mph /  4.8km/h 99% 0.00in /  0mm 0 W/m2
23:24 53.1 °F /  11.7 °C 52.8 °F /  11.6 °C 30.21in /  1022.9hPa NNE 2.7mph /  4.3km/h 2.2mph /  3.5km/h 99% 0.00in /  0mm 0 W/m2
23:29 53.1 °F /  11.7 °C 52.8 °F /  11.6 °C 30.21in /  1022.9hPa NNE 3.4mph /  5.5km/h 3mph /  4.8km/h 99% 0.00in /  0mm 0 W/m2
23:34 53.1 °F /  11.7 °C 52.8 °F /  11.6 °C 30.21in /  1022.9hPa North 3.4mph /  5.5km/h 3mph /  4.8km/h 99% 0.00in /  0mm 0 W/m2
23:39 53 °F /  11.7 °C 52.7 °F /  11.5 °C 30.21in /  1022.9hPa NNE 3.4mph /  5.5km/h 4mph /  6.4km/h 99% 0.00in /  0mm 0 W/m2
23:44 52.9 °F /  11.6 °C 52.6 °F /  11.4 °C 30.20in /  1022.6hPa NNE 3.3mph /  5.3km/h 4mph /  6.4km/h 99% 0.00in /  0mm 0 W/m2
23:49 52.9 °F /  11.6 °C 52.6 °F /  11.4 °C 30.21in /  1022.9hPa NNE 3.4mph /  5.5km/h 3mph /  4.8km/h 99% 0.00in /  0mm 0 W/m2
23:54 52.9 °F /  11.6 °C 52.6 °F /  11.4 °C 30.21in /  1022.9hPa NNE 3.4mph /  5.5km/h 3mph /  4.8km/h 99% 0.00in /  0mm 0 W/m2
23:59 52.9 °F /  11.6 °C 52.6 °F /  11.4 °C 30.21in /  1022.9hPa NNE 2.8mph /  4.5km/h 4mph /  6.4km/h 99% 0.00in /  0mm 0 W/m2
Knjazevac, Serbia
Compliments of Weather Underground - 4 mb